sensor_id;sensor_type;location;lat;lon;timestamp;P1;durP1;ratioP1;P2;durP2;ratioP2
60292;SDS011;52402;52.670;6.750;2023-09-19T00:00:45;14.65;;;13.95;;
60292;SDS011;52402;52.670;6.750;2023-09-19T00:03:15;15.85;;;15.05;;
60292;SDS011;52402;52.670;6.750;2023-09-19T00:05:41;15.50;;;14.73;;
60292;SDS011;52402;52.670;6.750;2023-09-19T00:08:10;14.25;;;13.55;;
60292;SDS011;52402;52.670;6.750;2023-09-19T00:10:35;15.70;;;14.90;;
60292;SDS011;52402;52.670;6.750;2023-09-19T00:13:04;15.25;;;14.55;;
60292;SDS011;52402;52.670;6.750;2023-09-19T00:15:30;14.70;;;14.00;;
60292;SDS011;52402;52.670;6.750;2023-09-19T00:18:00;14.73;;;14.02;;
60292;SDS011;52402;52.670;6.750;2023-09-19T00:20:27;15.80;;;15.00;;
60292;SDS011;52402;52.670;6.750;2023-09-19T00:22:53;15.15;;;14.45;;
60292;SDS011;52402;52.670;6.750;2023-09-19T00:25:21;13.98;;;13.27;;
60292;SDS011;52402;52.670;6.750;2023-09-19T00:27:47;13.40;;;12.70;;
60292;SDS011;52402;52.670;6.750;2023-09-19T00:30:15;13.80;;;13.10;;
60292;SDS011;52402;52.670;6.750;2023-09-19T00:32:45;13.95;;;13.25;;
60292;SDS011;52402;52.670;6.750;2023-09-19T00:35:17;12.82;;;12.15;;
60292;SDS011;52402;52.670;6.750;2023-09-19T00:37:43;12.90;;;12.23;;
60292;SDS011;52402;52.670;6.750;2023-09-19T00:40:09;14.10;;;13.40;;
60292;SDS011;52402;52.670;6.750;2023-09-19T00:42:37;13.38;;;12.68;;
60292;SDS011;52402;52.670;6.750;2023-09-19T00:45:05;14.43;;;13.73;;
60292;SDS011;52402;52.670;6.750;2023-09-19T00:47:31;14.70;;;14.00;;
60292;SDS011;52402;52.670;6.750;2023-09-19T00:49:57;15.13;;;14.43;;
60292;SDS011;52402;52.670;6.750;2023-09-19T00:52:23;14.85;;;14.15;;
60292;SDS011;52402;52.670;6.750;2023-09-19T00:54:49;13.68;;;12.98;;
60292;SDS011;52402;52.670;6.750;2023-09-19T00:57:15;13.30;;;12.60;;
60292;SDS011;52402;52.670;6.750;2023-09-19T00:59:42;13.13;;;12.43;;
60292;SDS011;52402;52.670;6.750;2023-09-19T01:02:08;13.27;;;12.57;;
60292;SDS011;52402;52.670;6.750;2023-09-19T01:04:34;13.40;;;12.70;;
60292;SDS011;52402;52.670;6.750;2023-09-19T01:07:15;14.25;;;13.55;;
60292;SDS011;52402;52.670;6.750;2023-09-19T01:09:42;13.65;;;12.95;;
60292;SDS011;52402;52.670;6.750;2023-09-19T01:12:08;13.10;;;12.40;;
60292;SDS011;52402;52.670;6.750;2023-09-19T01:14:38;13.45;;;12.75;;
60292;SDS011;52402;52.670;6.750;2023-09-19T01:17:22;13.32;;;12.63;;
60292;SDS011;52402;52.670;6.750;2023-09-19T01:31:01;13.02;;;12.32;;
60292;SDS011;52402;52.670;6.750;2023-09-19T01:33:28;13.35;;;12.65;;
60292;SDS011;52402;52.670;6.750;2023-09-19T01:36:16;12.38;;;11.77;;
60292;SDS011;52402;52.670;6.750;2023-09-19T01:38:41;13.50;;;12.80;;
60292;SDS011;52402;52.670;6.750;2023-09-19T01:41:12;12.50;;;11.90;;
60292;SDS011;52402;52.670;6.750;2023-09-19T01:43:42;12.10;;;11.50;;
60292;SDS011;52402;52.670;6.750;2023-09-19T01:46:12;12.20;;;11.60;;
60292;SDS011;52402;52.670;6.750;2023-09-19T01:54:36;12.55;;;11.95;;
60292;SDS011;52402;52.670;6.750;2023-09-19T01:57:14;11.82;;;11.23;;
60292;SDS011;52402;52.670;6.750;2023-09-19T02:00:04;12.23;;;11.63;;
60292;SDS011;52402;52.670;6.750;2023-09-19T02:02:35;12.15;;;11.55;;
60292;SDS011;52402;52.670;6.750;2023-09-19T02:05:04;11.45;;;10.85;;
60292;SDS011;52402;52.670;6.750;2023-09-19T02:07:31;12.52;;;11.93;;
60292;SDS011;52402;52.670;6.750;2023-09-19T02:09:58;11.70;;;11.10;;
60292;SDS011;52402;52.670;6.750;2023-09-19T02:12:30;11.68;;;11.07;;
60292;SDS011;52402;52.670;6.750;2023-09-19T02:14:56;11.65;;;11.05;;
60292;SDS011;52402;52.670;6.750;2023-09-19T02:17:23;11.50;;;10.90;;
60292;SDS011;52402;52.670;6.750;2023-09-19T02:19:51;11.45;;;10.85;;
60292;SDS011;52402;52.670;6.750;2023-09-19T02:22:21;12.10;;;11.50;;
60292;SDS011;52402;52.670;6.750;2023-09-19T02:24:49;12.38;;;11.77;;
60292;SDS011;52402;52.670;6.750;2023-09-19T02:27:16;12.30;;;11.70;;
60292;SDS011;52402;52.670;6.750;2023-09-19T02:29:43;11.63;;;11.02;;
60292;SDS011;52402;52.670;6.750;2023-09-19T02:32:08;12.00;;;11.40;;
60292;SDS011;52402;52.670;6.750;2023-09-19T02:34:37;11.70;;;11.10;;
60292;SDS011;52402;52.670;6.750;2023-09-19T02:37:04;13.45;;;12.75;;
60292;SDS011;52402;52.670;6.750;2023-09-19T02:39:32;11.60;;;11.00;;
60292;SDS011;52402;52.670;6.750;2023-09-19T02:41:58;12.95;;;12.25;;
60292;SDS011;52402;52.670;6.750;2023-09-19T02:44:23;12.10;;;11.50;;
60292;SDS011;52402;52.670;6.750;2023-09-19T02:46:49;11.48;;;10.88;;
60292;SDS011;52402;52.670;6.750;2023-09-19T02:49:15;11.55;;;10.95;;
60292;SDS011;52402;52.670;6.750;2023-09-19T02:51:42;12.30;;;11.70;;
60292;SDS011;52402;52.670;6.750;2023-09-19T02:54:09;11.32;;;10.73;;
60292;SDS011;52402;52.670;6.750;2023-09-19T02:56:35;11.52;;;10.93;;
60292;SDS011;52402;52.670;6.750;2023-09-19T02:59:03;12.07;;;11.48;;
60292;SDS011;52402;52.670;6.750;2023-09-19T03:01:34;11.57;;;10.98;;
60292;SDS011;52402;52.670;6.750;2023-09-19T03:04:02;10.98;;;10.38;;
60292;SDS011;52402;52.670;6.750;2023-09-19T03:06:28;11.80;;;11.20;;
60292;SDS011;52402;52.670;6.750;2023-09-19T03:08:56;10.90;;;10.30;;
60292;SDS011;52402;52.670;6.750;2023-09-19T03:11:21;12.98;;;12.27;;
60292;SDS011;52402;52.670;6.750;2023-09-19T03:13:54;11.30;;;10.70;;
60292;SDS011;52402;52.670;6.750;2023-09-19T03:16:20;11.90;;;11.30;;
60292;SDS011;52402;52.670;6.750;2023-09-19T03:18:49;11.55;;;10.95;;
60292;SDS011;52402;52.670;6.750;2023-09-19T03:21:15;11.57;;;10.98;;
60292;SDS011;52402;52.670;6.750;2023-09-19T03:23:42;10.77;;;10.18;;
60292;SDS011;52402;52.670;6.750;2023-09-19T03:26:10;11.35;;;10.75;;
60292;SDS011;52402;52.670;6.750;2023-09-19T03:28:37;11.55;;;10.95;;
60292;SDS011;52402;52.670;6.750;2023-09-19T03:31:04;10.80;;;10.20;;
60292;SDS011;52402;52.670;6.750;2023-09-19T03:33:31;10.90;;;10.30;;
60292;SDS011;52402;52.670;6.750;2023-09-19T03:35:58;11.38;;;10.77;;
60292;SDS011;52402;52.670;6.750;2023-09-19T03:38:24;10.45;;;9.85;;
60292;SDS011;52402;52.670;6.750;2023-09-19T03:40:50;10.70;;;10.10;;
60292;SDS011;52402;52.670;6.750;2023-09-19T03:43:16;11.52;;;10.93;;
60292;SDS011;52402;52.670;6.750;2023-09-19T03:45:42;12.23;;;11.63;;
60292;SDS011;52402;52.670;6.750;2023-09-19T03:48:08;11.60;;;11.00;;
60292;SDS011;52402;52.670;6.750;2023-09-19T03:50:34;10.77;;;10.18;;
60292;SDS011;52402;52.670;6.750;2023-09-19T03:53:01;11.75;;;11.15;;
60292;SDS011;52402;52.670;6.750;2023-09-19T03:55:27;11.30;;;10.70;;
60292;SDS011;52402;52.670;6.750;2023-09-19T03:57:54;11.02;;;10.43;;
60292;SDS011;52402;52.670;6.750;2023-09-19T04:00:20;10.45;;;9.85;;
60292;SDS011;52402;52.670;6.750;2023-09-19T04:02:47;10.13;;;9.55;;
60292;SDS011;52402;52.670;6.750;2023-09-19T04:05:13;11.85;;;11.25;;
60292;SDS011;52402;52.670;6.750;2023-09-19T04:07:39;12.52;;;11.93;;
60292;SDS011;52402;52.670;6.750;2023-09-19T04:10:05;11.88;;;11.27;;
60292;SDS011;52402;52.670;6.750;2023-09-19T04:12:33;11.50;;;10.90;;
60292;SDS011;52402;52.670;6.750;2023-09-19T04:14:59;12.07;;;11.48;;
60292;SDS011;52402;52.670;6.750;2023-09-19T04:17:25;11.55;;;10.95;;
60292;SDS011;52402;52.670;6.750;2023-09-19T04:19:50;12.10;;;11.50;;
60292;SDS011;52402;52.670;6.750;2023-09-19T04:22:18;11.98;;;11.38;;
60292;SDS011;52402;52.670;6.750;2023-09-19T04:24:44;11.48;;;10.88;;
60292;SDS011;52402;52.670;6.750;2023-09-19T04:27:11;12.32;;;11.73;;
60292;SDS011;52402;52.670;6.750;2023-09-19T04:29:40;11.65;;;11.05;;
60292;SDS011;52402;52.670;6.750;2023-09-19T04:32:06;11.43;;;10.82;;
60292;SDS011;52402;52.670;6.750;2023-09-19T04:34:33;10.38;;;9.77;;
60292;SDS011;52402;52.670;6.750;2023-09-19T04:36:59;10.15;;;9.55;;
60292;SDS011;52402;52.670;6.750;2023-09-19T04:39:26;9.85;;;9.35;;
60292;SDS011;52402;52.670;6.750;2023-09-19T04:41:52;9.98;;;9.48;;
60292;SDS011;52402;52.670;6.750;2023-09-19T04:44:18;10.35;;;9.75;;
60292;SDS011;52402;52.670;6.750;2023-09-19T04:46:52;10.55;;;9.95;;
60292;SDS011;52402;52.670;6.750;2023-09-19T04:49:17;10.23;;;9.63;;
60292;SDS011;52402;52.670;6.750;2023-09-19T04:51:43;8.88;;;8.38;;
60292;SDS011;52402;52.670;6.750;2023-09-19T04:54:09;11.75;;;11.15;;
60292;SDS011;52402;52.670;6.750;2023-09-19T04:56:34;12.27;;;11.68;;
60292;SDS011;52402;52.670;6.750;2023-09-19T04:59:00;10.57;;;9.98;;
60292;SDS011;52402;52.670;6.750;2023-09-19T05:01:26;10.30;;;9.70;;
60292;SDS011;52402;52.670;6.750;2023-09-19T05:03:52;10.65;;;10.05;;
60292;SDS011;52402;52.670;6.750;2023-09-19T05:06:21;9.38;;;8.88;;
60292;SDS011;52402;52.670;6.750;2023-09-19T05:08:52;9.52;;;9.02;;
60292;SDS011;52402;52.670;6.750;2023-09-19T05:11:18;8.43;;;7.93;;
60292;SDS011;52402;52.670;6.750;2023-09-19T05:13:48;8.45;;;7.95;;
60292;SDS011;52402;52.670;6.750;2023-09-19T05:16:15;8.40;;;7.90;;
60292;SDS011;52402;52.670;6.750;2023-09-19T05:18:41;8.75;;;8.25;;
60292;SDS011;52402;52.670;6.750;2023-09-19T05:21:07;8.35;;;7.85;;
60292;SDS011;52402;52.670;6.750;2023-09-19T05:23:38;7.78;;;7.28;;
60292;SDS011;52402;52.670;6.750;2023-09-19T05:26:04;7.10;;;6.70;;
60292;SDS011;52402;52.670;6.750;2023-09-19T05:28:30;6.07;;;5.68;;
60292;SDS011;52402;52.670;6.750;2023-09-19T05:30:57;5.78;;;5.38;;
60292;SDS011;52402;52.670;6.750;2023-09-19T05:33:26;5.30;;;4.93;;
60292;SDS011;52402;52.670;6.750;2023-09-19T05:35:53;6.53;;;6.13;;
60292;SDS011;52402;52.670;6.750;2023-09-19T05:38:19;6.15;;;5.75;;
60292;SDS011;52402;52.670;6.750;2023-09-19T05:40:45;6.65;;;6.25;;
60292;SDS011;52402;52.670;6.750;2023-09-19T05:43:11;6.07;;;5.68;;
60292;SDS011;52402;52.670;6.750;2023-09-19T05:45:39;4.95;;;4.65;;
60292;SDS011;52402;52.670;6.750;2023-09-19T05:48:09;5.32;;;4.93;;
60292;SDS011;52402;52.670;6.750;2023-09-19T05:50:42;5.43;;;5.03;;
60292;SDS011;52402;52.670;6.750;2023-09-19T05:53:08;5.85;;;5.45;;
60292;SDS011;52402;52.670;6.750;2023-09-19T05:55:47;5.55;;;5.15;;
60292;SDS011;52402;52.670;6.750;2023-09-19T05:58:12;5.13;;;4.82;;
60292;SDS011;52402;52.670;6.750;2023-09-19T06:00:42;4.95;;;4.65;;
60292;SDS011;52402;52.670;6.750;2023-09-19T06:03:09;5.30;;;4.93;;
60292;SDS011;52402;52.670;6.750;2023-09-19T06:05:36;4.63;;;4.32;;
60292;SDS011;52402;52.670;6.750;2023-09-19T06:08:05;5.35;;;4.95;;
60292;SDS011;52402;52.670;6.750;2023-09-19T06:10:33;4.95;;;4.65;;
60292;SDS011;52402;52.670;6.750;2023-09-19T06:13:00;5.07;;;4.78;;
60292;SDS011;52402;52.670;6.750;2023-09-19T06:15:31;4.68;;;4.38;;
60292;SDS011;52402;52.670;6.750;2023-09-19T06:17:58;5.75;;;5.35;;
60292;SDS011;52402;52.670;6.750;2023-09-19T06:20:26;5.13;;;4.82;;
60292;SDS011;52402;52.670;6.750;2023-09-19T06:22:52;5.25;;;4.85;;
60292;SDS011;52402;52.670;6.750;2023-09-19T06:25:19;5.18;;;4.78;;
60292;SDS011;52402;52.670;6.750;2023-09-19T06:27:45;4.75;;;4.45;;
60292;SDS011;52402;52.670;6.750;2023-09-19T06:30:12;5.72;;;5.32;;
60292;SDS011;52402;52.670;6.750;2023-09-19T06:32:38;5.10;;;4.75;;
60292;SDS011;52402;52.670;6.750;2023-09-19T06:35:05;4.85;;;4.55;;
60292;SDS011;52402;52.670;6.750;2023-09-19T06:37:36;5.38;;;4.97;;
60292;SDS011;52402;52.670;6.750;2023-09-19T06:42:41;5.13;;;4.78;;
60292;SDS011;52402;52.670;6.750;2023-09-19T06:45:09;4.93;;;4.60;;
60292;SDS011;52402;52.670;6.750;2023-09-19T06:47:36;5.80;;;5.40;;
60292;SDS011;52402;52.670;6.750;2023-09-19T06:50:02;5.20;;;4.80;;
60292;SDS011;52402;52.670;6.750;2023-09-19T06:52:29;5.85;;;5.45;;
60292;SDS011;52402;52.670;6.750;2023-09-19T06:54:55;5.40;;;5.00;;
60292;SDS011;52402;52.670;6.750;2023-09-19T06:57:20;6.65;;;6.25;;
60292;SDS011;52402;52.670;6.750;2023-09-19T06:59:46;6.45;;;6.05;;
60292;SDS011;52402;52.670;6.750;2023-09-19T07:02:11;5.90;;;5.50;;
60292;SDS011;52402;52.670;6.750;2023-09-19T07:04:40;6.45;;;6.05;;
60292;SDS011;52402;52.670;6.750;2023-09-19T07:07:05;6.43;;;6.03;;
60292;SDS011;52402;52.670;6.750;2023-09-19T07:09:34;6.22;;;5.82;;
60292;SDS011;52402;52.670;6.750;2023-09-19T07:11:59;6.95;;;6.55;;
60292;SDS011;52402;52.670;6.750;2023-09-19T07:14:27;6.43;;;6.03;;
60292;SDS011;52402;52.670;6.750;2023-09-19T07:16:53;6.22;;;5.82;;
60292;SDS011;52402;52.670;6.750;2023-09-19T07:19:19;6.80;;;6.40;;
60292;SDS011;52402;52.670;6.750;2023-09-19T07:21:45;6.43;;;6.03;;
60292;SDS011;52402;52.670;6.750;2023-09-19T07:24:12;7.43;;;6.97;;
60292;SDS011;52402;52.670;6.750;2023-09-19T07:26:38;6.43;;;6.03;;
60292;SDS011;52402;52.670;6.750;2023-09-19T07:29:05;6.75;;;6.35;;
60292;SDS011;52402;52.670;6.750;2023-09-19T07:31:31;7.40;;;6.97;;
60292;SDS011;52402;52.670;6.750;2023-09-19T07:33:57;7.00;;;6.60;;
60292;SDS011;52402;52.670;6.750;2023-09-19T07:36:23;7.30;;;6.88;;
60292;SDS011;52402;52.670;6.750;2023-09-19T07:38:49;7.05;;;6.65;;
60292;SDS011;52402;52.670;6.750;2023-09-19T07:41:16;7.13;;;6.72;;
60292;SDS011;52402;52.670;6.750;2023-09-19T07:43:42;7.47;;;6.97;;
60292;SDS011;52402;52.670;6.750;2023-09-19T07:46:09;8.27;;;7.78;;
60292;SDS011;52402;52.670;6.750;2023-09-19T07:48:37;7.55;;;7.05;;
60292;SDS011;52402;52.670;6.750;2023-09-19T07:51:04;8.13;;;7.63;;
60292;SDS011;52402;52.670;6.750;2023-09-19T07:53:34;8.90;;;8.40;;
60292;SDS011;52402;52.670;6.750;2023-09-19T07:56:04;9.35;;;8.85;;
60292;SDS011;52402;52.670;6.750;2023-09-19T07:58:31;7.90;;;7.40;;
60292;SDS011;52402;52.670;6.750;2023-09-19T08:01:08;8.38;;;7.88;;
60292;SDS011;52402;52.670;6.750;2023-09-19T08:03:35;8.70;;;8.20;;
60292;SDS011;52402;52.670;6.750;2023-09-19T08:06:06;9.52;;;9.02;;
60292;SDS011;52402;52.670;6.750;2023-09-19T08:08:32;8.50;;;8.00;;
60292;SDS011;52402;52.670;6.750;2023-09-19T08:11:07;8.70;;;8.20;;
60292;SDS011;52402;52.670;6.750;2023-09-19T08:13:40;8.45;;;7.95;;
60292;SDS011;52402;52.670;6.750;2023-09-19T08:16:10;9.32;;;8.82;;
60292;SDS011;52402;52.670;6.750;2023-09-19T08:18:36;8.93;;;8.43;;
60292;SDS011;52402;52.670;6.750;2023-09-19T08:21:05;10.35;;;9.75;;
60292;SDS011;52402;52.670;6.750;2023-09-19T08:23:36;8.43;;;7.93;;
60292;SDS011;52402;52.670;6.750;2023-09-19T08:26:03;8.15;;;7.65;;
60292;SDS011;52402;52.670;6.750;2023-09-19T08:28:32;8.82;;;8.32;;
60292;SDS011;52402;52.670;6.750;2023-09-19T08:31:01;8.65;;;8.15;;
60292;SDS011;52402;52.670;6.750;2023-09-19T08:33:34;9.13;;;8.63;;
60292;SDS011;52402;52.670;6.750;2023-09-19T08:36:01;9.43;;;8.93;;
60292;SDS011;52402;52.670;6.750;2023-09-19T08:38:30;9.68;;;9.18;;
60292;SDS011;52402;52.670;6.750;2023-09-19T08:40:58;8.98;;;8.48;;
60292;SDS011;52402;52.670;6.750;2023-09-19T08:43:24;8.95;;;8.45;;
60292;SDS011;52402;52.670;6.750;2023-09-19T08:45:53;9.85;;;9.35;;
60292;SDS011;52402;52.670;6.750;2023-09-19T08:48:28;10.65;;;10.05;;
60292;SDS011;52402;52.670;6.750;2023-09-19T08:50:56;10.32;;;9.73;;
60292;SDS011;52402;52.670;6.750;2023-09-19T08:53:42;11.27;;;10.68;;
60292;SDS011;52402;52.670;6.750;2023-09-19T08:56:24;10.10;;;9.50;;
60292;SDS011;52402;52.670;6.750;2023-09-19T09:01:26;12.20;;;11.60;;
60292;SDS011;52402;52.670;6.750;2023-09-19T09:03:53;11.43;;;10.82;;
60292;SDS011;52402;52.670;6.750;2023-09-19T09:06:20;11.40;;;10.80;;
60292;SDS011;52402;52.670;6.750;2023-09-19T09:08:48;12.45;;;11.85;;
60292;SDS011;52402;52.670;6.750;2023-09-19T09:11:15;12.25;;;11.65;;
60292;SDS011;52402;52.670;6.750;2023-09-19T09:13:43;13.73;;;13.02;;
60292;SDS011;52402;52.670;6.750;2023-09-19T09:16:12;12.18;;;11.57;;
60292;SDS011;52402;52.670;6.750;2023-09-19T09:18:41;12.82;;;12.15;;
60292;SDS011;52402;52.670;6.750;2023-09-19T09:21:09;13.55;;;12.85;;
60292;SDS011;52402;52.670;6.750;2023-09-19T09:23:35;13.15;;;12.45;;
60292;SDS011;52402;52.670;6.750;2023-09-19T09:26:01;12.40;;;11.80;;
60292;SDS011;52402;52.670;6.750;2023-09-19T09:28:28;14.38;;;13.68;;
60292;SDS011;52402;52.670;6.750;2023-09-19T09:30:56;14.88;;;14.18;;
60292;SDS011;52402;52.670;6.750;2023-09-19T09:33:33;16.30;;;15.50;;
60292;SDS011;52402;52.670;6.750;2023-09-19T09:35:59;16.55;;;15.75;;
60292;SDS011;52402;52.670;6.750;2023-09-19T09:38:49;16.35;;;15.55;;
60292;SDS011;52402;52.670;6.750;2023-09-19T09:41:15;16.33;;;15.52;;
60292;SDS011;52402;52.670;6.750;2023-09-19T09:43:52;15.43;;;14.68;;
60292;SDS011;52402;52.670;6.750;2023-09-19T09:46:18;15.98;;;15.18;;
60292;SDS011;52402;52.670;6.750;2023-09-19T09:51:41;17.25;;;16.45;;
60292;SDS011;52402;52.670;6.750;2023-09-19T09:54:25;18.05;;;17.23;;
60292;SDS011;52402;52.670;6.750;2023-09-19T09:57:01;17.35;;;16.55;;
60292;SDS011;52402;52.670;6.750;2023-09-19T09:59:45;18.02;;;17.20;;
60292;SDS011;52402;52.670;6.750;2023-09-19T10:02:15;17.30;;;16.50;;
60292;SDS011;52402;52.670;6.750;2023-09-19T10:04:51;20.00;;;19.10;;
60292;SDS011;52402;52.670;6.750;2023-09-19T10:07:27;17.75;;;16.95;;
60292;SDS011;52402;52.670;6.750;2023-09-19T10:10:02;15.95;;;15.15;;
60292;SDS011;52402;52.670;6.750;2023-09-19T10:12:46;17.30;;;16.50;;
60292;SDS011;52402;52.670;6.750;2023-09-19T10:15:14;17.08;;;16.27;;
60292;SDS011;52402;52.670;6.750;2023-09-19T10:17:44;17.48;;;16.67;;
60292;SDS011;52402;52.670;6.750;2023-09-19T10:20:12;18.75;;;17.85;;
60292;SDS011;52402;52.670;6.750;2023-09-19T10:23:06;18.23;;;17.33;;
60292;SDS011;52402;52.670;6.750;2023-09-19T10:25:40;17.42;;;16.63;;
60292;SDS011;52402;52.670;6.750;2023-09-19T10:28:08;18.17;;;17.33;;
60292;SDS011;52402;52.670;6.750;2023-09-19T10:30:46;19.25;;;18.35;;
60292;SDS011;52402;52.670;6.750;2023-09-19T10:33:13;19.70;;;18.80;;
60292;SDS011;52402;52.670;6.750;2023-09-19T10:35:44;21.02;;;20.02;;
60292;SDS011;52402;52.670;6.750;2023-09-19T10:38:11;16.35;;;15.55;;
60292;SDS011;52402;52.670;6.750;2023-09-19T10:40:48;18.75;;;17.85;;
60292;SDS011;52402;52.670;6.750;2023-09-19T10:45:46;17.88;;;17.08;;
60292;SDS011;52402;52.670;6.750;2023-09-19T10:48:17;17.25;;;16.45;;
60292;SDS011;52402;52.670;6.750;2023-09-19T10:53:16;17.83;;;17.02;;
60292;SDS011;52402;52.670;6.750;2023-09-19T10:55:52;17.67;;;16.88;;
60292;SDS011;52402;52.670;6.750;2023-09-19T11:00:59;17.15;;;16.35;;
60292;SDS011;52402;52.670;6.750;2023-09-19T11:03:31;16.60;;;15.80;;
60292;SDS011;52402;52.670;6.750;2023-09-19T11:06:10;17.65;;;16.85;;
60292;SDS011;52402;52.670;6.750;2023-09-19T11:09:02;17.95;;;17.13;;
60292;SDS011;52402;52.670;6.750;2023-09-19T11:11:39;17.77;;;16.98;;
60292;SDS011;52402;52.670;6.750;2023-09-19T11:30:46;17.95;;;17.13;;
60292;SDS011;52402;52.670;6.750;2023-09-19T11:36:07;19.10;;;18.20;;
60292;SDS011;52402;52.670;6.750;2023-09-19T11:41:57;19.95;;;19.05;;
60292;SDS011;52402;52.670;6.750;2023-09-19T11:46:51;20.90;;;19.90;;
60292;SDS011;52402;52.670;6.750;2023-09-19T11:49:18;18.67;;;17.77;;
60292;SDS011;52402;52.670;6.750;2023-09-19T11:51:48;21.23;;;20.23;;
60292;SDS011;52402;52.670;6.750;2023-09-19T11:56:56;20.27;;;19.38;;
60292;SDS011;52402;52.670;6.750;2023-09-19T11:59:23;21.52;;;20.52;;
60292;SDS011;52402;52.670;6.750;2023-09-19T12:04:46;21.10;;;20.10;;
60292;SDS011;52402;52.670;6.750;2023-09-19T12:07:14;21.20;;;20.20;;
60292;SDS011;52402;52.670;6.750;2023-09-19T12:09:41;22.35;;;21.35;;
60292;SDS011;52402;52.670;6.750;2023-09-19T12:12:10;21.15;;;20.15;;
60292;SDS011;52402;52.670;6.750;2023-09-19T12:14:41;21.42;;;20.42;;
60292;SDS011;52402;52.670;6.750;2023-09-19T12:17:13;19.92;;;19.02;;
60292;SDS011;52402;52.670;6.750;2023-09-19T12:19:39;18.80;;;17.90;;
60292;SDS011;52402;52.670;6.750;2023-09-19T12:22:14;25.70;;;24.55;;
60292;SDS011;52402;52.670;6.750;2023-09-19T12:24:40;25.70;;;24.52;;
60292;SDS011;52402;52.670;6.750;2023-09-19T12:27:09;26.38;;;25.17;;
60292;SDS011;52402;52.670;6.750;2023-09-19T12:29:46;19.83;;;18.92;;
60292;SDS011;52402;52.670;6.750;2023-09-19T12:32:33;23.80;;;22.70;;
60292;SDS011;52402;52.670;6.750;2023-09-19T12:34:59;23.08;;;22.05;;
60292;SDS011;52402;52.670;6.750;2023-09-19T12:37:32;21.42;;;20.42;;
60292;SDS011;52402;52.670;6.750;2023-09-19T12:40:08;21.98;;;20.98;;
60292;SDS011;52402;52.670;6.750;2023-09-19T12:42:48;21.27;;;20.27;;
60292;SDS011;52402;52.670;6.750;2023-09-19T12:45:14;19.70;;;18.80;;
60292;SDS011;52402;52.670;6.750;2023-09-19T12:51:05;19.15;;;18.25;;
60292;SDS011;52402;52.670;6.750;2023-09-19T12:53:41;19.58;;;18.67;;
60292;SDS011;52402;52.670;6.750;2023-09-19T12:56:11;21.30;;;20.30;;
60292;SDS011;52402;52.670;6.750;2023-09-19T12:58:53;21.83;;;20.83;;
60292;SDS011;52402;52.670;6.750;2023-09-19T13:01:21;20.00;;;19.10;;
60292;SDS011;52402;52.670;6.750;2023-09-19T13:06:50;21.25;;;20.25;;
60292;SDS011;52402;52.670;6.750;2023-09-19T13:09:17;20.90;;;19.90;;
60292;SDS011;52402;52.670;6.750;2023-09-19T13:11:45;21.42;;;20.42;;
60292;SDS011;52402;52.670;6.750;2023-09-19T13:14:26;21.13;;;20.13;;
60292;SDS011;52402;52.670;6.750;2023-09-19T13:17:00;22.40;;;21.40;;
60292;SDS011;52402;52.670;6.750;2023-09-19T13:25:15;19.30;;;18.40;;
60292;SDS011;52402;52.670;6.750;2023-09-19T13:27:47;20.48;;;19.58;;
60292;SDS011;52402;52.670;6.750;2023-09-19T13:30:16;20.35;;;19.45;;
60292;SDS011;52402;52.670;6.750;2023-09-19T13:32:42;20.77;;;19.77;;
60292;SDS011;52402;52.670;6.750;2023-09-19T13:35:18;19.60;;;18.70;;
60292;SDS011;52402;52.670;6.750;2023-09-19T13:37:44;19.60;;;18.70;;
60292;SDS011;52402;52.670;6.750;2023-09-19T13:40:14;19.05;;;18.15;;
60292;SDS011;52402;52.670;6.750;2023-09-19T13:42:40;18.48;;;17.58;;
60292;SDS011;52402;52.670;6.750;2023-09-19T13:45:07;18.50;;;17.60;;
60292;SDS011;52402;52.670;6.750;2023-09-19T13:47:36;19.98;;;19.08;;
60292;SDS011;52402;52.670;6.750;2023-09-19T13:50:03;18.13;;;17.27;;
60292;SDS011;52402;52.670;6.750;2023-09-19T13:52:30;19.17;;;18.27;;
60292;SDS011;52402;52.670;6.750;2023-09-19T13:54:57;18.20;;;17.30;;
60292;SDS011;52402;52.670;6.750;2023-09-19T13:57:23;18.10;;;17.20;;
60292;SDS011;52402;52.670;6.750;2023-09-19T13:59:50;18.50;;;17.60;;
60292;SDS011;52402;52.670;6.750;2023-09-19T14:02:16;17.30;;;16.50;;
60292;SDS011;52402;52.670;6.750;2023-09-19T14:04:47;18.52;;;17.63;;
60292;SDS011;52402;52.670;6.750;2023-09-19T14:07:14;18.63;;;17.73;;
60292;SDS011;52402;52.670;6.750;2023-09-19T14:09:42;17.30;;;16.50;;
60292;SDS011;52402;52.670;6.750;2023-09-19T14:12:08;17.73;;;16.92;;
60292;SDS011;52402;52.670;6.750;2023-09-19T14:14:34;17.00;;;16.20;;
60292;SDS011;52402;52.670;6.750;2023-09-19T14:17:00;16.52;;;15.73;;
60292;SDS011;52402;52.670;6.750;2023-09-19T14:19:29;17.48;;;16.67;;
60292;SDS011;52402;52.670;6.750;2023-09-19T14:21:54;16.83;;;16.03;;
60292;SDS011;52402;52.670;6.750;2023-09-19T14:24:21;16.83;;;16.02;;
60292;SDS011;52402;52.670;6.750;2023-09-19T14:26:47;16.83;;;16.02;;
60292;SDS011;52402;52.670;6.750;2023-09-19T14:29:14;17.05;;;16.25;;
60292;SDS011;52402;52.670;6.750;2023-09-19T14:31:40;17.58;;;16.77;;
60292;SDS011;52402;52.670;6.750;2023-09-19T14:34:07;17.90;;;17.10;;
60292;SDS011;52402;52.670;6.750;2023-09-19T14:36:37;18.10;;;17.25;;
60292;SDS011;52402;52.670;6.750;2023-09-19T14:39:04;18.42;;;17.52;;
60292;SDS011;52402;52.670;6.750;2023-09-19T14:41:30;17.88;;;17.02;;
60292;SDS011;52402;52.670;6.750;2023-09-19T14:43:56;17.23;;;16.42;;
60292;SDS011;52402;52.670;6.750;2023-09-19T14:46:22;17.60;;;16.80;;
60292;SDS011;52402;52.670;6.750;2023-09-19T14:48:50;17.15;;;16.35;;
60292;SDS011;52402;52.670;6.750;2023-09-19T14:51:16;17.70;;;16.90;;
60292;SDS011;52402;52.670;6.750;2023-09-19T14:53:44;17.27;;;16.48;;
60292;SDS011;52402;52.670;6.750;2023-09-19T14:56:10;17.20;;;16.40;;
60292;SDS011;52402;52.670;6.750;2023-09-19T14:58:37;17.23;;;16.42;;
60292;SDS011;52402;52.670;6.750;2023-09-19T15:01:08;16.48;;;15.68;;
60292;SDS011;52402;52.670;6.750;2023-09-19T15:03:38;16.85;;;16.05;;
60292;SDS011;52402;52.670;6.750;2023-09-19T15:06:06;18.15;;;17.27;;
60292;SDS011;52402;52.670;6.750;2023-09-19T15:08:37;16.92;;;16.13;;
60292;SDS011;52402;52.670;6.750;2023-09-19T15:11:06;17.13;;;16.33;;
60292;SDS011;52402;52.670;6.750;2023-09-19T15:13:32;17.40;;;16.60;;
60292;SDS011;52402;52.670;6.750;2023-09-19T15:16:01;15.40;;;14.60;;
60292;SDS011;52402;52.670;6.750;2023-09-19T15:18:34;17.80;;;17.00;;
60292;SDS011;52402;52.670;6.750;2023-09-19T15:21:06;16.75;;;15.95;;
60292;SDS011;52402;52.670;6.750;2023-09-19T15:23:33;17.58;;;16.77;;
60292;SDS011;52402;52.670;6.750;2023-09-19T15:26:00;17.83;;;17.02;;
60292;SDS011;52402;52.670;6.750;2023-09-19T15:28:29;17.35;;;16.55;;
60292;SDS011;52402;52.670;6.750;2023-09-19T15:31:03;16.65;;;15.85;;
60292;SDS011;52402;52.670;6.750;2023-09-19T15:33:30;17.02;;;16.23;;
60292;SDS011;52402;52.670;6.750;2023-09-19T15:36:03;17.70;;;16.90;;
60292;SDS011;52402;52.670;6.750;2023-09-19T15:38:30;17.13;;;16.33;;
60292;SDS011;52402;52.670;6.750;2023-09-19T15:40:57;17.13;;;16.33;;
60292;SDS011;52402;52.670;6.750;2023-09-19T15:43:23;17.15;;;16.35;;
60292;SDS011;52402;52.670;6.750;2023-09-19T15:45:49;17.90;;;17.08;;
60292;SDS011;52402;52.670;6.750;2023-09-19T15:48:15;18.35;;;17.45;;
60292;SDS011;52402;52.670;6.750;2023-09-19T15:50:41;16.17;;;15.38;;
60292;SDS011;52402;52.670;6.750;2023-09-19T15:53:09;17.02;;;16.23;;